Avilla, Missouri
Current Conditions -  °F | °C
As of 8:53 AM on Sunday 23 Nov 2014 (Local Time) from KJLN Reporting Station
Overcast Overcast  
Wind Chill: 58°   Ceiling: 1200
Heat Index: 58°   Visibility: 10mi
Dew Point: 55°   Wind: 10mph
Humidity: 90%   Direction: 170°S
Pressure: 29.52"   Gusts: NA
Location:  37.2°N, 94.13°W
Report Text: KJLN 231453Z 17009KT 10SM OVC012 14/13 A2952 RMK AO2 SLP992 T01440128 58016
Loading
Personal Weather Stations






























Interactive Weather Map New forecast layout! Learn more

10-Day Weather Forecast

Advertisements
Track Severe Weather on mobile